QTR27L OLBA-OTHH
Flight info
| Callsign | QTR27L |
|---|---|
| Flight time | N/A |
| Altitude | 37000 |
| Route | LEBOR1D LEBOR R655 KTN R785 RASLI P559 TRF R23 NEVOL N318 TAMRO T503 KSA M321 RESAL T533 RAPMA Y214 ASPUS/N0439F290 Y432 LADBO T142 LAEEB |
| Aircraft | B77W/H-SDE1E3FGHIJ5M1P2RWXYZ/LB1D1 |
Departure
| Time | 2026-04-28 10:19 |
|---|---|
| Airport | Beirut Rafic Hariri International Airport (OLBA) |
Arrival
| Time | N/A |
|---|---|
| Airport | Hamad International Airport (OTHH) |
| Time | Latitude | Longitude | Altitude | Speed | Heading |
|---|---|---|---|---|---|
| 2026-04-28 09:59 | 33.82576 | 35.49101 | 45 ft | 0 kts | 105° |
| 2026-04-28 10:11 | 33.82576 | 35.49100 | 45 ft | 1 kts | 104° |
| 2026-04-28 10:11 | 33.82580 | 35.49081 | 45 ft | 3 kts | 104° |
| 2026-04-28 10:11 | 33.82585 | 35.49058 | 44 ft | 3 kts | 104° |
| 2026-04-28 10:11 | 33.82591 | 35.49034 | 41 ft | 3 kts | 104° |
| 2026-04-28 10:12 | 33.82596 | 35.49011 | 42 ft | 3 kts | 104° |
| 2026-04-28 10:12 | 33.82601 | 35.48987 | 42 ft | 3 kts | 104° |
| 2026-04-28 10:12 | 33.82605 | 35.48966 | 42 ft | 3 kts | 104° |
| 2026-04-28 10:15 | 33.82591 | 35.48985 | 45 ft | 8 kts | 147° |
| 2026-04-28 10:15 | 33.82489 | 35.48997 | 44 ft | 22 kts | 177° |
| 2026-04-28 10:15 | 33.82323 | 35.49008 | 43 ft | 24 kts | 176° |
| 2026-04-28 10:15 | 33.82223 | 35.49145 | 43 ft | 24 kts | 104° |
| 2026-04-28 10:16 | 33.82180 | 35.49337 | 44 ft | 24 kts | 105° |
| 2026-04-28 10:16 | 33.82124 | 35.49525 | 46 ft | 24 kts | 85° |
| 2026-04-28 10:16 | 33.82243 | 35.49659 | 48 ft | 24 kts | 35° |
| 2026-04-28 10:16 | 33.82380 | 35.49775 | 47 ft | 24 kts | 35° |
| 2026-04-28 10:17 | 33.82517 | 35.49891 | 47 ft | 24 kts | 35° |
| 2026-04-28 10:17 | 33.82654 | 35.50006 | 48 ft | 24 kts | 35° |
| 2026-04-28 10:17 | 33.82757 | 35.50140 | 60 ft | 20 kts | 96° |
| 2026-04-28 10:17 | 33.82691 | 35.50278 | 60 ft | 12 kts | 143° |
| 2026-04-28 10:18 | 33.82618 | 35.50257 | 61 ft | 14 kts | 212° |
| 2026-04-28 10:18 | 33.82382 | 35.50074 | 49 ft | 79 kts | 213° |
| 2026-04-28 10:18 | 33.81702 | 35.49547 | 43 ft | 151 kts | 213° |
| 2026-04-28 10:18 | 33.80694 | 35.48756 | 226 ft | 185 kts | 213° |
| 2026-04-28 10:19 | 33.79610 | 35.47931 | 1055 ft | 182 kts | 215° |
| 2026-04-28 10:19 | 33.78609 | 35.46990 | 1842 ft | 184 kts | 224° |
| 2026-04-28 10:19 | 33.77655 | 35.45855 | 2200 ft | 206 kts | 226° |
| 2026-04-28 10:19 | 33.76581 | 35.44542 | 2470 ft | 234 kts | 226° |
| 2026-04-28 10:20 | 33.75407 | 35.43110 | 2942 ft | 251 kts | 225° |
| 2026-04-28 10:20 | 33.74152 | 35.41585 | 3633 ft | 261 kts | 226° |
| 2026-04-28 10:20 | 33.72851 | 35.40008 | 4392 ft | 270 kts | 227° |
| 2026-04-28 10:20 | 33.71517 | 35.38388 | 5211 ft | 273 kts | 227° |
| 2026-04-28 10:21 | 33.70490 | 35.36487 | 5886 ft | 274 kts | 256° |
| 2026-04-28 10:21 | 33.70343 | 35.34224 | 6646 ft | 274 kts | 281° |
| 2026-04-28 10:21 | 33.70919 | 35.32046 | 7425 ft | 274 kts | 300° |
| 2026-04-28 10:21 | 33.72053 | 35.30227 | 8279 ft | 273 kts | 319° |
| 2026-04-28 10:22 | 33.73639 | 35.28974 | 9069 ft | 275 kts | 337° |
| 2026-04-28 10:22 | 33.75492 | 35.28407 | 9848 ft | 277 kts | 360° |
| 2026-04-28 10:22 | 33.77425 | 35.28575 | 10394 ft | 285 kts | 5° |
| 2026-04-28 10:22 | 33.79496 | 35.28799 | 10587 ft | 312 kts | 5° |
| 2026-04-28 10:23 | 33.81709 | 35.29259 | 10765 ft | 336 kts | 18° |
| 2026-04-28 10:23 | 33.83875 | 35.30548 | 11149 ft | 356 kts | 32° |
| 2026-04-28 10:23 | 33.85932 | 35.32279 | 11850 ft | 366 kts | 34° |
| 2026-04-28 10:23 | 33.88019 | 35.34088 | 12731 ft | 374 kts | 35° |
| 2026-04-28 10:24 | 33.90147 | 35.35936 | 13684 ft | 380 kts | 34° |
| 2026-04-28 10:24 | 33.92286 | 35.37782 | 14522 ft | 387 kts | 34° |
| 2026-04-28 10:24 | 33.94494 | 35.39675 | 15360 ft | 393 kts | 34° |
| 2026-04-28 10:24 | 33.96773 | 35.41620 | 16201 ft | 399 kts | 34° |
| 2026-04-28 10:25 | 33.99031 | 35.43540 | 17091 ft | 404 kts | 34° |
| 2026-04-28 10:25 | 34.01344 | 35.45506 | 17955 ft | 410 kts | 34° |
| 2026-04-28 10:25 | 34.03696 | 35.47504 | 18718 ft | 416 kts | 34° |
| 2026-04-28 10:25 | 34.06076 | 35.49525 | 19482 ft | 421 kts | 34° |
| 2026-04-28 10:26 | 34.08484 | 35.51574 | 20237 ft | 425 kts | 34° |
| 2026-04-28 10:26 | 34.10912 | 35.53640 | 20988 ft | 430 kts | 34° |
| 2026-04-28 10:26 | 34.13369 | 35.55733 | 21697 ft | 435 kts | 34° |
| 2026-04-28 10:26 | 34.15866 | 35.57862 | 22370 ft | 442 kts | 34° |
| 2026-04-28 10:27 | 34.18385 | 35.60012 | 23130 ft | 446 kts | 35° |
| 2026-04-28 10:27 | 34.20937 | 35.62191 | 23705 ft | 453 kts | 35° |
| 2026-04-28 10:27 | 34.23512 | 35.64392 | 24387 ft | 454 kts | 35° |
| 2026-04-28 10:27 | 34.26084 | 35.66628 | 24946 ft | 454 kts | 38° |
| 2026-04-28 10:28 | 34.28213 | 35.69469 | 25361 ft | 462 kts | 59° |
| 2026-04-28 10:28 | 34.29499 | 35.73042 | 25884 ft | 467 kts | 75° |
| 2026-04-28 10:28 | 34.29966 | 35.76933 | 26443 ft | 468 kts | 90° |
| 2026-04-28 10:29 | 34.29621 | 35.84839 | 27375 ft | 476 kts | 94° |
| 2026-04-28 10:29 | 34.29418 | 35.88798 | 27858 ft | 481 kts | 94° |
| 2026-04-28 10:29 | 34.29226 | 35.92850 | 28375 ft | 484 kts | 93° |
| 2026-04-28 10:29 | 34.29049 | 35.96935 | 28904 ft | 488 kts | 93° |
| 2026-04-28 10:30 | 34.28884 | 36.01041 | 29406 ft | 491 kts | 93° |
| 2026-04-28 10:30 | 34.28724 | 36.05180 | 29854 ft | 495 kts | 93° |
| 2026-04-28 10:30 | 34.28563 | 36.09357 | 30211 ft | 498 kts | 93° |
| 2026-04-28 10:30 | 34.28401 | 36.13559 | 30580 ft | 501 kts | 93° |
| 2026-04-28 10:31 | 34.28238 | 36.17768 | 31000 ft | 501 kts | 93° |
| 2026-04-28 10:31 | 34.28071 | 36.21980 | 31454 ft | 501 kts | 93° |
| 2026-04-28 10:31 | 34.27903 | 36.26184 | 31869 ft | 502 kts | 93° |
| 2026-04-28 10:31 | 34.27731 | 36.30412 | 32238 ft | 504 kts | 93° |
| 2026-04-28 10:32 | 34.27558 | 36.34645 | 32636 ft | 504 kts | 94° |
| 2026-04-28 10:32 | 34.27383 | 36.38892 | 33056 ft | 504 kts | 94° |
| 2026-04-28 10:32 | 34.27209 | 36.43075 | 33494 ft | 504 kts | 94° |
| 2026-04-28 10:32 | 34.27032 | 36.47308 | 33934 ft | 504 kts | 94° |
| 2026-04-28 10:33 | 34.26853 | 36.51548 | 34259 ft | 505 kts | 94° |
| 2026-04-28 10:33 | 34.26673 | 36.55793 | 34532 ft | 506 kts | 94° |
| 2026-04-28 10:33 | 34.26482 | 36.60052 | 34802 ft | 508 kts | 95° |
| 2026-04-28 10:33 | 34.26209 | 36.64319 | 35082 ft | 509 kts | 96° |
| 2026-04-28 10:34 | 34.25876 | 36.68579 | 35355 ft | 510 kts | 97° |
| 2026-04-28 10:34 | 34.25523 | 36.72850 | 35597 ft | 511 kts | 97° |
| 2026-04-28 10:34 | 34.25171 | 36.77139 | 35845 ft | 513 kts | 97° |
| 2026-04-28 10:34 | 34.24828 | 36.81437 | 36074 ft | 515 kts | 97° |
| 2026-04-28 10:35 | 34.24493 | 36.85750 | 36340 ft | 515 kts | 97° |
| 2026-04-28 10:35 | 34.24163 | 36.90065 | 36605 ft | 516 kts | 97° |
| 2026-04-28 10:35 | 34.23833 | 36.94390 | 36840 ft | 518 kts | 97° |
| 2026-04-28 10:36 | 34.23275 | 37.01643 | 36925 ft | 524 kts | 97° |
| 2026-04-28 10:36 | 34.22587 | 37.10480 | 36954 ft | 531 kts | 97° |
| 2026-04-28 10:37 | 34.21768 | 37.19349 | 36942 ft | 529 kts | 107° |
| 2026-04-28 10:37 | 34.20466 | 37.23463 | 36947 ft | 521 kts | 124° |
| 2026-04-28 10:37 | 34.18348 | 37.26951 | 36952 ft | 512 kts | 137° |
| 2026-04-28 10:37 | 34.15716 | 37.29797 | 36932 ft | 504 kts | 150° |
| 2026-04-28 10:38 | 34.12693 | 37.31820 | 36945 ft | 492 kts | 160° |
| 2026-04-28 10:38 | 34.06472 | 37.35328 | 36937 ft | 495 kts | 160° |
| 2026-04-28 10:39 | 34.00254 | 37.38968 | 36943 ft | 497 kts | 159° |
| 2026-04-28 10:39 | 33.94047 | 37.42667 | 36939 ft | 498 kts | 159° |
| 2026-04-28 10:40 | 33.87840 | 37.46369 | 36922 ft | 497 kts | 159° |
| 2026-04-28 10:40 | 33.81643 | 37.50051 | 36940 ft | 496 kts | 159° |
| 2026-04-28 10:41 | 33.75489 | 37.53698 | 36935 ft | 496 kts | 159° |
| 2026-04-28 10:41 | 33.69311 | 37.57353 | 36941 ft | 495 kts | 159° |
| 2026-04-28 10:42 | 33.63136 | 37.61001 | 36921 ft | 494 kts | 159° |
| 2026-04-28 10:42 | 33.56973 | 37.64636 | 36937 ft | 493 kts | 159° |
| 2026-04-28 10:43 | 33.50801 | 37.68217 | 36942 ft | 493 kts | 160° |
| 2026-04-28 10:43 | 33.44617 | 37.71759 | 36929 ft | 493 kts | 160° |
| 2026-04-28 10:44 | 33.38432 | 37.75299 | 36940 ft | 493 kts | 160° |
| 2026-04-28 10:44 | 33.32234 | 37.78825 | 36934 ft | 493 kts | 160° |
| 2026-04-28 10:45 | 33.26038 | 37.82345 | 36951 ft | 493 kts | 160° |
| 2026-04-28 10:45 | 33.19826 | 37.85872 | 36942 ft | 494 kts | 160° |
| 2026-04-28 10:46 | 33.13612 | 37.89396 | 36943 ft | 494 kts | 160° |
| 2026-04-28 10:46 | 33.07402 | 37.92913 | 36942 ft | 494 kts | 160° |
| 2026-04-28 10:47 | 33.01183 | 37.96429 | 36934 ft | 495 kts | 161° |
| 2026-04-28 10:47 | 32.94955 | 37.99943 | 36947 ft | 495 kts | 161° |
| 2026-04-28 10:48 | 32.88756 | 38.03598 | 36956 ft | 497 kts | 159° |
| 2026-04-28 10:48 | 32.82574 | 38.07291 | 36936 ft | 498 kts | 160° |
| 2026-04-28 10:49 | 32.76376 | 38.10972 | 36950 ft | 498 kts | 160° |
| 2026-04-28 10:49 | 32.70164 | 38.14655 | 36952 ft | 498 kts | 160° |
| 2026-04-28 10:50 | 32.63964 | 38.18328 | 36954 ft | 499 kts | 160° |
| 2026-04-28 10:50 | 32.57749 | 38.22005 | 36940 ft | 499 kts | 160° |
| 2026-04-28 10:51 | 32.51536 | 38.25675 | 36947 ft | 499 kts | 160° |
| 2026-04-28 10:51 | 32.45318 | 38.29342 | 36956 ft | 499 kts | 160° |
| 2026-04-28 10:52 | 32.39100 | 38.33003 | 36961 ft | 499 kts | 160° |
| 2026-04-28 10:52 | 32.32920 | 38.36636 | 36954 ft | 499 kts | 160° |
| 2026-04-28 10:53 | 32.26682 | 38.40298 | 36966 ft | 499 kts | 161° |
| 2026-04-28 10:53 | 32.20456 | 38.43947 | 36961 ft | 499 kts | 161° |
| 2026-04-28 10:54 | 32.14228 | 38.47592 | 36951 ft | 500 kts | 161° |
| 2026-04-28 10:54 | 32.07991 | 38.51236 | 36961 ft | 500 kts | 161° |
| 2026-04-28 10:55 | 32.01759 | 38.54873 | 36949 ft | 500 kts | 161° |
| 2026-04-28 10:55 | 31.95528 | 38.58503 | 36967 ft | 499 kts | 161° |
| 2026-04-28 10:56 | 31.89297 | 38.62128 | 36980 ft | 500 kts | 161° |
| 2026-04-28 10:56 | 31.83055 | 38.65756 | 36976 ft | 500 kts | 161° |
| 2026-04-28 10:57 | 31.76813 | 38.69382 | 36989 ft | 500 kts | 161° |
| 2026-04-28 10:57 | 31.70581 | 38.72997 | 36995 ft | 500 kts | 161° |
| 2026-04-28 10:58 | 31.64511 | 38.77120 | 37004 ft | 506 kts | 155° |
| 2026-04-28 10:58 | 31.58531 | 38.81474 | 36968 ft | 506 kts | 155° |
| 2026-04-28 10:59 | 31.52538 | 38.85814 | 36970 ft | 506 kts | 156° |
| 2026-04-28 10:59 | 31.46527 | 38.90127 | 36938 ft | 506 kts | 156° |
| 2026-04-28 11:00 | 31.40525 | 38.94416 | 36968 ft | 506 kts | 156° |
| 2026-04-28 11:00 | 31.34515 | 38.98703 | 36975 ft | 506 kts | 156° |
| 2026-04-28 11:01 | 31.28499 | 39.02992 | 36976 ft | 506 kts | 156° |
| 2026-04-28 11:01 | 31.22482 | 39.07276 | 36974 ft | 506 kts | 156° |
| 2026-04-28 11:02 | 31.16496 | 39.11532 | 36958 ft | 506 kts | 156° |
| 2026-04-28 11:02 | 31.10474 | 39.15809 | 36978 ft | 506 kts | 157° |
| 2026-04-28 11:03 | 31.04455 | 39.20074 | 36977 ft | 506 kts | 157° |
| 2026-04-28 11:03 | 30.98423 | 39.24340 | 36979 ft | 506 kts | 157° |
| 2026-04-28 11:04 | 30.92431 | 39.28572 | 36979 ft | 507 kts | 157° |
| 2026-04-28 11:04 | 30.86401 | 39.32827 | 36975 ft | 506 kts | 157° |
| 2026-04-28 11:05 | 30.80384 | 39.37067 | 36980 ft | 506 kts | 158° |
| 2026-04-28 11:05 | 30.74362 | 39.41304 | 36991 ft | 506 kts | 158° |
| 2026-04-28 11:06 | 30.68338 | 39.45534 | 36989 ft | 506 kts | 158° |
| 2026-04-28 11:06 | 30.62310 | 39.49764 | 36997 ft | 506 kts | 158° |
| 2026-04-28 11:07 | 30.56290 | 39.53981 | 36990 ft | 505 kts | 158° |
| 2026-04-28 11:07 | 30.50264 | 39.58197 | 36979 ft | 505 kts | 158° |
| 2026-04-28 11:08 | 30.44289 | 39.62516 | 36991 ft | 512 kts | 153° |
| 2026-04-28 11:08 | 30.38921 | 39.68129 | 37011 ft | 528 kts | 140° |
| 2026-04-28 11:09 | 30.34377 | 39.74934 | 37016 ft | 537 kts | 134° |
| 2026-04-28 11:09 | 30.29994 | 39.81938 | 36983 ft | 537 kts | 134° |
| 2026-04-28 11:10 | 30.25567 | 39.88899 | 37008 ft | 537 kts | 135° |
| 2026-04-28 11:10 | 30.21096 | 39.95822 | 37018 ft | 537 kts | 135° |
| 2026-04-28 11:11 | 30.16615 | 40.02733 | 37016 ft | 538 kts | 135° |
| 2026-04-28 11:11 | 30.12126 | 40.09658 | 36999 ft | 538 kts | 135° |
| 2026-04-28 11:12 | 30.07634 | 40.16581 | 37012 ft | 539 kts | 135° |
| 2026-04-28 11:12 | 30.03130 | 40.23513 | 37005 ft | 540 kts | 135° |
| 2026-04-28 11:13 | 29.98617 | 40.30444 | 37001 ft | 540 kts | 136° |
| 2026-04-28 11:13 | 29.94128 | 40.37324 | 37001 ft | 540 kts | 136° |
| 2026-04-28 11:14 | 29.89612 | 40.44238 | 37003 ft | 540 kts | 136° |
| 2026-04-28 11:14 | 29.85093 | 40.51146 | 36986 ft | 540 kts | 136° |
| 2026-04-28 11:15 | 29.80567 | 40.58057 | 36996 ft | 540 kts | 136° |
| 2026-04-28 11:15 | 29.76084 | 40.64999 | 37000 ft | 544 kts | 133° |
| 2026-04-28 11:16 | 29.72717 | 40.71164 | 36980 ft | 548 kts | 130° |
| 2026-04-28 11:16 | 29.68750 | 40.78658 | 37001 ft | 548 kts | 130° |
| 2026-04-28 11:17 | 29.64759 | 40.86131 | 36994 ft | 548 kts | 130° |
| 2026-04-28 11:17 | 29.60737 | 40.93579 | 36969 ft | 548 kts | 131° |
| 2026-04-28 11:18 | 29.56707 | 41.01011 | 36985 ft | 548 kts | 131° |
| 2026-04-28 11:18 | 29.52668 | 41.08451 | 36993 ft | 549 kts | 131° |
| 2026-04-28 11:19 | 29.48616 | 41.15909 | 36967 ft | 549 kts | 131° |
| 2026-04-28 11:19 | 29.44596 | 41.23297 | 36975 ft | 549 kts | 131° |
| 2026-04-28 11:20 | 29.40538 | 41.30740 | 36976 ft | 550 kts | 131° |
| 2026-04-28 11:20 | 29.36478 | 41.38175 | 36959 ft | 550 kts | 131° |
| 2026-04-28 11:21 | 29.32410 | 41.45605 | 36966 ft | 550 kts | 131° |
| 2026-04-28 11:21 | 29.28335 | 41.53036 | 36967 ft | 551 kts | 131° |
| 2026-04-28 11:22 | 29.24260 | 41.60458 | 36953 ft | 551 kts | 131° |
| 2026-04-28 11:22 | 29.20182 | 41.67876 | 36963 ft | 550 kts | 131° |
| 2026-04-28 11:23 | 29.16096 | 41.75291 | 36952 ft | 551 kts | 131° |
| 2026-04-28 11:23 | 29.12005 | 41.82705 | 36945 ft | 551 kts | 131° |
| 2026-04-28 11:24 | 29.07910 | 41.90113 | 36946 ft | 551 kts | 131° |
| 2026-04-28 11:24 | 29.03807 | 41.97518 | 36941 ft | 551 kts | 132° |
| 2026-04-28 11:25 | 28.99699 | 42.04911 | 36938 ft | 551 kts | 132° |
| 2026-04-28 11:25 | 28.95584 | 42.12303 | 36928 ft | 552 kts | 132° |
| 2026-04-28 11:26 | 28.91481 | 42.19665 | 36936 ft | 553 kts | 132° |
| 2026-04-28 11:26 | 28.87345 | 42.27076 | 36924 ft | 554 kts | 132° |
| 2026-04-28 11:27 | 28.83201 | 42.34486 | 36927 ft | 555 kts | 132° |
| 2026-04-28 11:27 | 28.79044 | 42.41907 | 36894 ft | 555 kts | 132° |
| 2026-04-28 11:28 | 28.74883 | 42.49323 | 36915 ft | 555 kts | 132° |
| 2026-04-28 11:28 | 28.70718 | 42.56734 | 36909 ft | 556 kts | 132° |
| 2026-04-28 11:29 | 28.66545 | 42.64146 | 36884 ft | 555 kts | 132° |
| 2026-04-28 11:29 | 28.62003 | 42.71120 | 36895 ft | 539 kts | 143° |
| 2026-04-28 11:30 | 28.56890 | 42.77310 | 36905 ft | 536 kts | 144° |
| 2026-04-28 11:30 | 28.49237 | 42.86556 | 36897 ft | 538 kts | 143° |
| 2026-04-28 11:31 | 28.44107 | 42.92831 | 36892 ft | 538 kts | 143° |
| 2026-04-28 11:31 | 28.39016 | 42.99066 | 36898 ft | 538 kts | 143° |
| 2026-04-28 11:32 | 28.33925 | 43.05288 | 36879 ft | 538 kts | 143° |
| 2026-04-28 11:32 | 28.28830 | 43.11499 | 36885 ft | 538 kts | 143° |
| 2026-04-28 11:33 | 28.23730 | 43.17703 | 36886 ft | 538 kts | 143° |
| 2026-04-28 11:33 | 28.18665 | 43.23857 | 36858 ft | 538 kts | 143° |
| 2026-04-28 11:34 | 28.13565 | 43.30047 | 36877 ft | 537 kts | 143° |
| 2026-04-28 11:34 | 28.08465 | 43.36226 | 36879 ft | 536 kts | 143° |
| 2026-04-28 11:35 | 28.03370 | 43.42390 | 36861 ft | 536 kts | 143° |
| 2026-04-28 11:35 | 27.98268 | 43.48554 | 36870 ft | 536 kts | 143° |
| 2026-04-28 11:36 | 27.93173 | 43.54699 | 36862 ft | 536 kts | 143° |
| 2026-04-28 11:36 | 27.88065 | 43.60853 | 36870 ft | 535 kts | 143° |
| 2026-04-28 11:37 | 27.82954 | 43.66968 | 36853 ft | 533 kts | 145° |
| 2026-04-28 11:37 | 27.77661 | 43.72777 | 36866 ft | 529 kts | 147° |
| 2026-04-28 11:38 | 27.72295 | 43.78476 | 36870 ft | 530 kts | 147° |
| 2026-04-28 11:38 | 27.66989 | 43.84175 | 36849 ft | 530 kts | 146° |
| 2026-04-28 11:39 | 27.61670 | 43.89945 | 36875 ft | 530 kts | 146° |
| 2026-04-28 11:39 | 27.56352 | 43.95717 | 36873 ft | 530 kts | 146° |
| 2026-04-28 11:40 | 27.51033 | 44.01476 | 36873 ft | 530 kts | 146° |
| 2026-04-28 11:40 | 27.45712 | 44.07223 | 36865 ft | 530 kts | 146° |
| 2026-04-28 11:41 | 27.40394 | 44.12961 | 36870 ft | 530 kts | 146° |
| 2026-04-28 11:41 | 27.35068 | 44.18701 | 36873 ft | 530 kts | 146° |
| 2026-04-28 11:42 | 27.29748 | 44.24434 | 36854 ft | 530 kts | 146° |
| 2026-04-28 11:42 | 27.24430 | 44.30161 | 36860 ft | 529 kts | 146° |
| 2026-04-28 11:43 | 27.19108 | 44.35882 | 36868 ft | 529 kts | 146° |
| 2026-04-28 11:43 | 27.13783 | 44.41598 | 36878 ft | 529 kts | 146° |
| 2026-04-28 11:44 | 27.08465 | 44.47298 | 36864 ft | 529 kts | 146° |
| 2026-04-28 11:44 | 27.03179 | 44.52957 | 36886 ft | 528 kts | 146° |
| 2026-04-28 11:45 | 26.97856 | 44.58647 | 36870 ft | 529 kts | 146° |
| 2026-04-28 11:45 | 26.92534 | 44.64328 | 36881 ft | 528 kts | 146° |
| 2026-04-28 11:46 | 26.87209 | 44.70005 | 36877 ft | 528 kts | 146° |
| 2026-04-28 11:46 | 26.81881 | 44.75678 | 36888 ft | 528 kts | 146° |
| 2026-04-28 11:47 | 26.76556 | 44.81339 | 36892 ft | 528 kts | 146° |
| 2026-04-28 11:47 | 26.71232 | 44.86991 | 36892 ft | 528 kts | 146° |
| 2026-04-28 11:48 | 26.65895 | 44.92650 | 36895 ft | 527 kts | 146° |
| 2026-04-28 11:48 | 26.60572 | 44.98286 | 36899 ft | 527 kts | 146° |
| 2026-04-28 11:49 | 26.55243 | 45.03921 | 36871 ft | 527 kts | 146° |
| 2026-04-28 11:49 | 26.49918 | 45.09545 | 36893 ft | 527 kts | 146° |
| 2026-04-28 11:50 | 26.44589 | 45.15164 | 36898 ft | 527 kts | 146° |
| 2026-04-28 11:50 | 26.39257 | 45.20779 | 36879 ft | 527 kts | 146° |
| 2026-04-28 11:51 | 26.33929 | 45.26384 | 36891 ft | 527 kts | 146° |
| 2026-04-28 11:51 | 26.28627 | 45.31953 | 36903 ft | 527 kts | 146° |
| 2026-04-28 11:52 | 26.23292 | 45.37549 | 36889 ft | 526 kts | 145° |
| 2026-04-28 11:52 | 26.17966 | 45.43129 | 36896 ft | 526 kts | 145° |
| 2026-04-28 11:53 | 26.12636 | 45.48705 | 36902 ft | 526 kts | 145° |
| 2026-04-28 11:53 | 26.07307 | 45.54274 | 36891 ft | 525 kts | 145° |
| 2026-04-28 11:54 | 26.01975 | 45.59838 | 36900 ft | 525 kts | 145° |
| 2026-04-28 11:54 | 25.96640 | 45.65397 | 36895 ft | 525 kts | 145° |
| 2026-04-28 11:55 | 25.91340 | 45.70913 | 36901 ft | 525 kts | 145° |
| 2026-04-28 11:55 | 25.86010 | 45.76453 | 36891 ft | 525 kts | 145° |
| 2026-04-28 11:56 | 25.80709 | 45.82041 | 36895 ft | 526 kts | 144° |
| 2026-04-28 11:56 | 25.75457 | 45.87680 | 36891 ft | 526 kts | 144° |
| 2026-04-28 11:57 | 25.70204 | 45.93316 | 36893 ft | 526 kts | 144° |
| 2026-04-28 11:57 | 25.64929 | 45.98947 | 36898 ft | 525 kts | 144° |
| 2026-04-28 11:58 | 25.59687 | 46.04525 | 36880 ft | 525 kts | 144° |
| 2026-04-28 11:58 | 25.55270 | 46.09220 | 36891 ft | 525 kts | 144° |
| 2026-04-28 11:59 | 25.49133 | 46.15735 | 36890 ft | 525 kts | 144° |
| 2026-04-28 11:59 | 25.43857 | 46.21330 | 36875 ft | 525 kts | 144° |
| 2026-04-28 12:00 | 25.38583 | 46.26915 | 36887 ft | 525 kts | 144° |
| 2026-04-28 12:00 | 25.34200 | 46.31552 | 36901 ft | 525 kts | 144° |
| 2026-04-28 12:01 | 25.28918 | 46.37133 | 36883 ft | 525 kts | 143° |
| 2026-04-28 12:01 | 25.23645 | 46.42697 | 36895 ft | 524 kts | 143° |
| 2026-04-28 12:02 | 25.18371 | 46.48256 | 36896 ft | 524 kts | 143° |
| 2026-04-28 12:02 | 25.13093 | 46.53811 | 36876 ft | 523 kts | 143° |
| 2026-04-28 12:03 | 25.07828 | 46.59346 | 36889 ft | 523 kts | 143° |
| 2026-04-28 12:03 | 25.02551 | 46.64887 | 36883 ft | 523 kts | 143° |
| 2026-04-28 12:04 | 24.92413 | 46.75511 | 36872 ft | 523 kts | 143° |
| 2026-04-28 12:04 | 24.75823 | 46.92843 | 36839 ft | 524 kts | 143° |
| 2026-04-28 12:05 | 24.66975 | 47.02060 | 36879 ft | 524 kts | 143° |
| 2026-04-28 12:05 | 24.45791 | 47.24050 | 36870 ft | 524 kts | 143° |
| 2026-04-28 12:06 | 24.24522 | 47.46020 | 36824 ft | 526 kts | 142° |
| 2026-04-28 12:06 | 24.03208 | 47.67932 | 36844 ft | 525 kts | 142° |
| 2026-04-28 12:07 | 23.81886 | 47.89749 | 36763 ft | 524 kts | 142° |
| 2026-04-28 12:07 | 23.60555 | 48.11471 | 36750 ft | 524 kts | 142° |
| 2026-04-28 12:08 | 23.39830 | 48.33552 | 36642 ft | 536 kts | 122° |
| 2026-04-28 12:08 | 23.37466 | 48.49504 | 36825 ft | 541 kts | 92° |
| 2026-04-28 12:08 | 23.36951 | 48.65977 | 36770 ft | 542 kts | 94° |
| 2026-04-28 12:09 | 23.36237 | 48.82395 | 36665 ft | 546 kts | 94° |
| 2026-04-28 12:09 | 23.35530 | 48.98839 | 36789 ft | 543 kts | 94° |
| 2026-04-28 12:09 | 23.34063 | 49.31676 | 36813 ft | 544 kts | 94° |
| 2026-04-28 12:10 | 23.32527 | 49.64547 | 36785 ft | 544 kts | 94° |
| 2026-04-28 12:10 | 23.30920 | 49.97470 | 36738 ft | 542 kts | 94° |
| 2026-04-28 12:11 | 23.29276 | 50.29782 | 35743 ft | 517 kts | 94° |
| 2026-04-28 12:11 | 23.28448 | 50.45566 | 32627 ft | 532 kts | 93° |
| 2026-04-28 12:11 | 23.27581 | 50.61796 | 29857 ft | 533 kts | 95° |
| 2026-04-28 12:12 | 23.26725 | 50.77530 | 28435 ft | 502 kts | 95° |
| 2026-04-28 12:12 | 23.25905 | 50.92262 | 28749 ft | 498 kts | 96° |
| 2026-04-28 12:12 | 23.26552 | 51.07853 | 28852 ft | 539 kts | 63° |
| 2026-04-28 12:12 | 23.37690 | 51.16796 | 28723 ft | 484 kts | 6° |
| 2026-04-28 12:13 | 23.50682 | 51.17731 | 28700 ft | 462 kts | 355° |
| 2026-04-28 12:13 | 23.61927 | 51.18346 | 27145 ft | 450 kts | 357° |
| 2026-04-28 12:13 | 23.65046 | 51.18574 | 26558 ft | 449 kts | 358° |
| 2026-04-28 12:13 | 23.68169 | 51.18807 | 25922 ft | 450 kts | 358° |
| 2026-04-28 12:14 | 23.71288 | 51.19041 | 25338 ft | 449 kts | 358° |
| 2026-04-28 12:14 | 23.74403 | 51.19274 | 24823 ft | 446 kts | 359° |
| 2026-04-28 12:14 | 23.77490 | 51.19505 | 24392 ft | 442 kts | 359° |
| 2026-04-28 12:14 | 23.80547 | 51.19732 | 23955 ft | 438 kts | 359° |
| 2026-04-28 12:15 | 23.83586 | 51.19958 | 23505 ft | 436 kts | 359° |
| 2026-04-28 12:15 | 23.86594 | 51.20179 | 23093 ft | 431 kts | 359° |
| 2026-04-28 12:15 | 23.89599 | 51.20400 | 22271 ft | 436 kts | 359° |
| 2026-04-28 12:15 | 23.92652 | 51.20621 | 21309 ft | 443 kts | 360° |
| 2026-04-28 12:16 | 23.95740 | 51.20846 | 20568 ft | 445 kts | 360° |
| 2026-04-28 12:16 | 23.98831 | 51.21074 | 19868 ft | 446 kts | 0° |
| 2026-04-28 12:16 | 24.01925 | 51.21303 | 19184 ft | 445 kts | 0° |
| 2026-04-28 12:16 | 24.05007 | 51.21533 | 18657 ft | 442 kts | 0° |
| 2026-04-28 12:17 | 24.08036 | 51.21760 | 18456 ft | 431 kts | 0° |
| 2026-04-28 12:17 | 24.10978 | 51.22152 | 18407 ft | 423 kts | 8° |
| 2026-04-28 12:17 | 24.13779 | 51.23044 | 18317 ft | 417 kts | 17° |
| 2026-04-28 12:17 | 24.16424 | 51.24278 | 18215 ft | 410 kts | 24° |
| 2026-04-28 12:18 | 24.18904 | 51.25796 | 18042 ft | 406 kts | 27° |
| 2026-04-28 12:18 | 24.21342 | 51.27338 | 17707 ft | 404 kts | 27° |
| 2026-04-28 12:18 | 24.23783 | 51.28878 | 17349 ft | 404 kts | 27° |
| 2026-04-28 12:18 | 24.26218 | 51.30410 | 17034 ft | 402 kts | 27° |
| 2026-04-28 12:19 | 24.28637 | 51.31928 | 16741 ft | 400 kts | 27° |
| 2026-04-28 12:19 | 24.31043 | 51.33434 | 16457 ft | 397 kts | 27° |
| 2026-04-28 12:19 | 24.33409 | 51.34914 | 16191 ft | 395 kts | 27° |
| 2026-04-28 12:19 | 24.35790 | 51.36402 | 15908 ft | 393 kts | 27° |
| 2026-04-28 12:20 | 24.38162 | 51.37885 | 15625 ft | 391 kts | 27° |
| 2026-04-28 12:20 | 24.40532 | 51.39365 | 15267 ft | 392 kts | 28° |
| 2026-04-28 12:20 | 24.42902 | 51.40847 | 14980 ft | 391 kts | 28° |
| 2026-04-28 12:20 | 24.45254 | 51.42319 | 14749 ft | 388 kts | 28° |
| 2026-04-28 12:21 | 24.47595 | 51.43784 | 14502 ft | 386 kts | 28° |
| 2026-04-28 12:21 | 24.49920 | 51.45240 | 14250 ft | 384 kts | 28° |
| 2026-04-28 12:21 | 24.52239 | 51.46693 | 13980 ft | 383 kts | 28° |
| 2026-04-28 12:21 | 24.54552 | 51.48143 | 13734 ft | 381 kts | 28° |